createdAt,value
2024-02-06T00:01:04.578Z,31.04
2024-02-06T00:03:31.625Z,30.98
2024-02-06T00:05:58.729Z,31.46
2024-02-06T00:08:25.737Z,31.72
2024-02-06T00:10:52.831Z,31.76
2024-02-06T00:13:19.869Z,31.47
2024-02-06T00:15:47.437Z,31.13
2024-02-06T00:18:14.609Z,31.46
2024-02-06T00:20:41.739Z,30.73
2024-02-06T00:23:08.750Z,31.13
2024-02-06T00:25:35.931Z,31.68
2024-02-06T00:28:03.090Z,32.05
2024-02-06T00:30:30.200Z,31.89
2024-02-06T00:32:57.581Z,31.80
2024-02-06T00:35:24.869Z,31.78
2024-02-06T00:37:52.085Z,31.78
2024-02-06T00:40:19.230Z,32.01
2024-02-06T00:42:46.477Z,32.34
2024-02-06T00:45:14.030Z,31.82
2024-02-06T00:47:41.174Z,32.01
2024-02-06T00:50:08.984Z,31.67
2024-02-06T00:52:36.306Z,30.90
2024-02-06T00:55:03.537Z,30.59
2024-02-06T00:57:31.723Z,31.05
2024-02-06T00:59:58.802Z,30.86
2024-02-06T01:02:26.855Z,31.52
2024-02-06T01:04:55.072Z,31.15
2024-02-06T01:07:22.691Z,31.31
2024-02-06T01:09:49.784Z,30.75
2024-02-06T01:12:16.823Z,30.85
2024-02-06T01:14:43.991Z,30.64
2024-02-06T01:17:11.547Z,30.50
2024-02-06T01:19:38.751Z,29.70
2024-02-06T01:22:06.973Z,29.29
2024-02-06T01:24:34.459Z,29.20
2024-02-06T01:27:01.543Z,29.34
2024-02-06T01:29:28.558Z,30.34
2024-02-06T01:31:55.662Z,30.37
2024-02-06T01:34:22.774Z,30.28
2024-02-06T01:36:49.911Z,29.80
2024-02-06T01:39:18.478Z,29.70
2024-02-06T01:41:45.473Z,29.70
2024-02-06T01:44:12.545Z,29.76
2024-02-06T01:46:40.631Z,29.96
2024-02-06T01:49:11.010Z,29.91
2024-02-06T01:51:41.166Z,29.62
2024-02-06T01:54:08.336Z,30.09
2024-02-06T01:56:36.338Z,30.17
2024-02-06T01:59:04.002Z,30.46
2024-02-06T02:01:31.576Z,30.58
2024-02-06T02:03:59.684Z,30.32
2024-02-06T02:06:27.565Z,30.47
2024-02-06T02:08:55.000Z,30.03
2024-02-06T02:11:22.029Z,29.89
2024-02-06T02:13:54.195Z,30.18
2024-02-06T02:16:23.770Z,30.26
2024-02-06T02:18:52.067Z,30.34
2024-02-06T02:21:19.295Z,30.97
2024-02-06T02:23:47.318Z,31.28
2024-02-06T02:26:17.652Z,31.35
2024-02-06T02:28:45.567Z,31.07
2024-02-06T02:31:13.497Z,30.77
2024-02-06T02:33:40.936Z,30.78
2024-02-06T02:36:08.643Z,30.96
2024-02-06T02:38:38.539Z,31.55
2024-02-06T02:41:05.885Z,31.44
2024-02-06T02:43:33.099Z,31.74
2024-02-06T02:46:00.347Z,31.39
2024-02-06T02:48:27.498Z,31.38
2024-02-06T02:50:54.488Z,31.84
2024-02-06T02:53:21.517Z,32.02
2024-02-06T02:55:48.585Z,31.94
2024-02-06T02:58:15.659Z,31.98
2024-02-06T03:00:42.789Z,32.26
2024-02-06T03:03:09.875Z,31.75
2024-02-06T03:05:38.187Z,31.53
2024-02-06T03:08:05.555Z,31.55
2024-02-06T03:10:32.557Z,31.98
2024-02-06T03:12:59.593Z,31.99
2024-02-06T03:15:27.157Z,32.45
2024-02-06T03:17:55.946Z,32.00
2024-02-06T03:20:23.191Z,31.76
2024-02-06T03:22:50.302Z,31.80
2024-02-06T03:25:17.617Z,32.28
2024-02-06T03:27:46.935Z,32.37
2024-02-06T03:30:15.807Z,32.64
2024-02-06T03:32:43.488Z,32.24
2024-02-06T03:35:11.520Z,32.61
2024-02-06T03:37:38.849Z,32.13
2024-02-06T03:40:10.378Z,32.23
2024-02-06T03:42:39.039Z,31.86
2024-02-06T03:45:06.749Z,31.85
2024-02-06T03:47:34.858Z,31.91
2024-02-06T03:50:02.232Z,32.12
2024-02-06T03:52:32.117Z,31.68
2024-02-06T03:54:59.281Z,31.78
2024-02-06T03:57:26.269Z,31.64
2024-02-06T03:59:53.265Z,31.25
2024-02-06T04:02:22.536Z,30.96
2024-02-06T04:04:49.964Z,31.00
2024-02-06T04:07:17.586Z,31.30
2024-02-06T04:09:44.955Z,31.32
2024-02-06T04:12:12.100Z,31.46
2024-02-06T04:14:40.670Z,30.96
2024-02-06T04:17:08.024Z,31.29
2024-02-06T04:19:35.702Z,31.54
2024-02-06T04:22:03.066Z,31.70
2024-02-06T04:24:30.032Z,31.26
2024-02-06T04:26:57.101Z,31.60
2024-02-06T04:29:24.091Z,31.53
2024-02-06T04:31:51.125Z,32.29
2024-02-06T04:34:18.278Z,31.71
2024-02-06T04:36:45.612Z,31.56
2024-02-06T04:39:12.682Z,31.87
2024-02-06T04:41:40.241Z,32.35
2024-02-06T04:44:07.697Z,32.46
2024-02-06T04:46:34.787Z,32.22
2024-02-06T04:49:01.986Z,32.08
2024-02-06T04:51:30.485Z,32.27
2024-02-06T04:53:57.481Z,31.68
2024-02-06T04:56:24.609Z,31.87
2024-02-06T04:58:51.739Z,32.32
2024-02-06T05:01:19.261Z,32.32
2024-02-06T05:03:46.914Z,31.84
2024-02-06T05:06:14.392Z,31.94
2024-02-06T05:08:41.432Z,31.90
2024-02-06T05:11:09.133Z,31.85
2024-02-06T05:13:36.692Z,31.93
2024-02-06T05:16:04.102Z,31.74
2024-02-06T05:18:31.534Z,31.43
2024-02-06T05:21:01.372Z,31.89
2024-02-06T05:23:28.460Z,31.67
2024-02-06T05:25:55.641Z,31.78
2024-02-06T05:28:22.981Z,32.05
2024-02-06T05:30:49.974Z,32.40
2024-02-06T05:33:17.422Z,32.33
2024-02-06T05:35:44.664Z,31.78
2024-02-06T05:38:11.713Z,31.99
2024-02-06T05:40:38.829Z,32.54
2024-02-06T05:43:06.052Z,32.53
2024-02-06T05:45:33.226Z,32.39
2024-02-06T05:48:01.399Z,32.36
2024-02-06T05:50:30.213Z,32.17
2024-02-06T05:52:57.968Z,32.62
2024-02-06T05:55:27.569Z,32.17
2024-02-06T05:57:54.935Z,32.13
2024-02-06T06:00:23.069Z,32.08
2024-02-06T06:02:50.167Z,32.10
2024-02-06T06:05:17.617Z,32.39
2024-02-06T06:07:44.846Z,31.37
2024-02-06T06:10:12.123Z,31.87
2024-02-06T06:12:39.255Z,31.67
2024-02-06T06:15:06.659Z,32.00
2024-02-06T06:17:33.766Z,31.96
2024-02-06T06:20:01.102Z,32.02
2024-02-06T06:22:31.226Z,31.55
2024-02-06T06:24:58.283Z,32.02
2024-02-06T06:27:25.311Z,32.14
2024-02-06T06:29:52.352Z,31.94
2024-02-06T06:32:19.415Z,31.39
2024-02-06T06:34:49.324Z,30.90
2024-02-06T06:37:20.028Z,30.76
2024-02-06T06:39:50.848Z,30.36
2024-02-06T06:42:19.158Z,30.11
2024-02-06T06:44:46.258Z,30.33
2024-02-06T06:47:13.244Z,29.73
2024-02-06T06:49:40.788Z,29.66
2024-02-06T06:52:08.659Z,29.14
2024-02-06T06:54:36.404Z,29.29
2024-02-06T06:57:06.768Z,29.48
2024-02-06T06:59:34.919Z,29.27
2024-02-06T07:02:02.303Z,28.67
2024-02-06T07:04:30.353Z,28.40
2024-02-06T07:06:57.548Z,28.02
2024-02-06T07:09:28.263Z,28.42
2024-02-06T07:11:55.328Z,28.06
2024-02-06T07:14:22.399Z,28.29
2024-02-06T07:16:51.097Z,28.38
2024-02-06T07:19:18.959Z,28.36
2024-02-06T07:21:56.881Z,28.02
2024-02-06T07:24:27.935Z,28.20
2024-02-06T07:26:55.748Z,27.77
2024-02-06T07:29:22.832Z,28.15
2024-02-06T07:31:50.014Z,28.45
2024-02-06T07:34:20.164Z,28.28
2024-02-06T07:36:48.138Z,28.29
2024-02-06T07:39:15.469Z,28.04
2024-02-06T07:41:42.763Z,27.94
2024-02-06T07:44:10.792Z,27.70
2024-02-06T07:46:37.972Z,27.43
2024-02-06T07:49:05.702Z,27.48
2024-02-06T07:51:33.258Z,27.57
2024-02-06T07:54:00.404Z,26.94
2024-02-06T07:56:32.949Z,27.12
2024-02-06T07:59:00.794Z,26.88
2024-02-06T08:01:28.087Z,26.97
2024-02-06T08:03:55.513Z,26.87
2024-02-06T08:06:23.249Z,27.01
2024-02-06T08:08:50.511Z,26.77
2024-02-06T08:11:17.583Z,26.55
2024-02-06T08:13:44.937Z,26.63
2024-02-06T08:16:12.081Z,26.66
2024-02-06T08:18:39.412Z,27.59
2024-02-06T08:21:06.701Z,27.97
2024-02-06T08:23:34.278Z,28.05
2024-02-06T08:26:01.345Z,28.32
2024-02-06T08:28:28.563Z,28.57
2024-02-06T08:30:55.961Z,28.21
2024-02-06T08:33:23.405Z,27.99
2024-02-06T08:35:53.895Z,28.16
2024-02-06T08:38:21.305Z,28.14
2024-02-06T08:40:49.034Z,27.90
2024-02-06T08:43:18.562Z,27.97
2024-02-06T08:45:46.359Z,27.48
2024-02-06T08:48:14.154Z,27.62
2024-02-06T08:54:23.738Z,27.50
2024-02-06T08:56:51.314Z,27.60
2024-02-06T08:59:18.947Z,27.14
2024-02-06T09:01:46.514Z,26.85
2024-02-06T09:04:14.077Z,26.75
2024-02-06T09:06:41.193Z,26.79
2024-02-06T09:09:08.302Z,26.67
2024-02-06T09:11:35.391Z,26.86
2024-02-06T09:14:02.671Z,26.41
2024-02-06T09:16:29.748Z,26.45
2024-02-06T09:18:58.817Z,26.17
2024-02-06T09:21:27.038Z,26.10
2024-02-06T09:23:54.106Z,25.87
2024-02-06T09:26:21.165Z,25.71
2024-02-06T09:28:48.532Z,25.50
2024-02-06T09:31:15.738Z,25.52
2024-02-06T09:33:44.054Z,25.60
2024-02-06T09:36:12.095Z,25.65
2024-02-06T09:38:41.052Z,25.32
2024-02-06T09:41:13.515Z,25.33
2024-02-06T09:43:42.084Z,25.05
2024-02-06T13:17:58.962Z,22.37
2024-02-06T13:20:26.530Z,21.72
2024-02-06T13:22:53.917Z,22.03
2024-02-06T13:25:22.450Z,22.12
2024-02-06T13:27:50.867Z,22.16
2024-02-06T13:30:18.212Z,22.48
2024-02-06T13:32:45.309Z,22.35
2024-02-06T13:35:12.545Z,22.55
2024-02-06T13:37:40.834Z,22.33
2024-02-06T13:40:08.672Z,22.69
2024-02-06T13:42:36.192Z,23.04
2024-02-06T13:45:03.424Z,22.88
2024-02-06T13:47:32.020Z,23.06
2024-02-06T13:50:00.591Z,22.55
2024-02-06T13:52:27.792Z,22.40
2024-02-06T13:54:54.794Z,22.48
2024-02-06T13:57:21.841Z,22.89
2024-02-06T13:59:49.080Z,23.08
2024-02-06T14:02:16.307Z,22.72
2024-02-06T14:04:43.481Z,22.92
2024-02-06T14:07:17.676Z,23.20
2024-02-06T14:09:45.151Z,22.70
2024-02-06T14:12:12.478Z,22.60
2024-02-06T14:14:39.911Z,22.67
2024-02-06T14:17:06.939Z,22.79
2024-02-06T14:19:36.164Z,22.41
2024-02-06T14:22:03.513Z,22.82
2024-02-06T14:24:30.602Z,22.76
2024-02-06T14:26:58.203Z,23.32
2024-02-06T14:29:27.336Z,23.51
2024-02-06T14:31:55.435Z,23.25
2024-02-06T14:34:22.651Z,23.62
2024-02-06T14:36:49.784Z,23.33
2024-02-06T14:39:16.903Z,23.75
2024-02-06T14:41:44.359Z,24.03
2024-02-06T14:44:11.355Z,24.03
2024-02-06T14:46:38.515Z,24.72
2024-02-06T14:49:05.730Z,24.43
2024-02-06T15:05:31.146Z,24.96
2024-02-06T15:07:58.484Z,24.70
2024-02-06T15:10:25.519Z,24.85
2024-02-06T15:12:52.632Z,25.07
2024-02-06T15:15:19.702Z,24.79
2024-02-06T15:17:47.785Z,24.97
2024-02-06T15:20:15.252Z,25.02
2024-02-06T15:22:42.836Z,25.43
2024-02-06T15:25:10.092Z,25.49
2024-02-06T15:27:37.121Z,25.68
2024-02-06T15:30:04.771Z,25.66
2024-02-06T15:32:32.536Z,25.65
2024-02-06T15:34:59.969Z,26.34
2024-02-06T15:37:27.253Z,25.57
2024-02-06T15:39:54.406Z,25.92
2024-02-06T15:42:21.807Z,26.36
2024-02-06T15:44:49.219Z,26.87
2024-02-06T15:47:16.505Z,26.66
2024-02-06T15:49:46.671Z,26.24
2024-02-06T15:52:13.987Z,26.99
2024-02-06T15:54:43.670Z,27.55
2024-02-06T15:57:10.914Z,26.73
2024-02-06T15:59:44.254Z,27.04
2024-02-06T16:02:12.877Z,27.07
2024-02-06T16:04:40.314Z,27.70
2024-02-06T16:07:07.776Z,27.86
2024-02-06T16:09:34.863Z,28.11
2024-02-06T16:12:03.669Z,27.72
2024-02-06T16:14:31.517Z,28.31
2024-02-06T16:17:00.225Z,28.20
2024-02-06T16:19:31.664Z,29.17
2024-02-06T16:22:02.038Z,29.37
2024-02-06T16:24:34.179Z,29.96
2024-02-06T16:27:01.339Z,30.96
2024-02-06T16:29:28.715Z,31.73
2024-02-06T16:31:56.225Z,32.05
2024-02-06T16:34:33.223Z,31.95
2024-02-06T16:37:06.273Z,32.22
2024-02-06T16:39:33.512Z,32.68
2024-02-06T16:42:01.066Z,32.80
2024-02-06T16:44:28.131Z,33.55
2024-02-06T16:46:55.403Z,33.93
2024-02-06T16:49:22.684Z,33.97
2024-02-06T16:51:49.873Z,33.78
2024-02-06T16:54:19.091Z,34.23
2024-02-06T16:56:46.218Z,35.06
2024-02-06T16:59:13.531Z,35.24
2024-02-06T17:01:43.362Z,36.61
2024-02-06T17:04:11.338Z,36.92
2024-02-06T17:06:41.534Z,36.30
2024-02-06T17:09:11.548Z,36.28
2024-02-06T17:11:45.066Z,35.18
2024-02-06T17:41:06.572Z,40.05
2024-02-06T17:43:33.660Z,39.75
2024-02-06T17:46:00.861Z,39.66
2024-02-06T17:48:27.983Z,39.70
2024-02-06T17:50:56.521Z,40.90
2024-02-06T17:53:23.653Z,40.91
2024-02-06T17:55:50.840Z,40.47
2024-02-06T17:58:18.012Z,40.52
2024-02-06T18:00:45.480Z,40.03
2024-02-06T18:03:12.591Z,38.40
2024-02-06T18:05:39.670Z,37.33
2024-02-06T18:08:07.201Z,38.26
2024-02-06T18:10:35.200Z,38.43
2024-02-06T18:13:02.669Z,39.17
2024-02-06T18:15:32.149Z,39.86
2024-02-06T18:17:59.252Z,40.48
2024-02-06T18:20:26.732Z,40.14
2024-02-06T18:22:53.866Z,39.12
2024-02-06T18:25:22.943Z,39.64
2024-02-06T18:27:50.819Z,38.84
2024-02-06T18:30:19.055Z,38.13
2024-02-06T18:32:46.241Z,39.62
2024-02-06T18:35:16.302Z,40.39
2024-02-06T18:37:53.529Z,40.53
2024-02-06T18:40:20.665Z,40.86
2024-02-06T18:42:47.712Z,40.76
2024-02-06T18:45:15.110Z,42.53
2024-02-06T18:47:45.552Z,42.63
2024-02-06T18:50:13.431Z,43.47
2024-02-06T18:52:41.005Z,43.81
2024-02-06T18:55:11.740Z,42.82
2024-02-06T18:57:40.681Z,43.65
2024-02-06T19:00:11.740Z,42.93
2024-02-06T19:02:38.882Z,42.46
2024-02-06T19:05:06.515Z,42.21
2024-02-06T19:07:33.844Z,42.21
2024-02-06T19:10:01.097Z,42.20
2024-02-06T19:12:30.463Z,43.44
2024-02-06T19:14:57.572Z,43.99
2024-02-06T19:17:25.342Z,44.21
2024-02-06T19:19:52.566Z,44.28
2024-02-06T19:22:20.863Z,43.68
2024-02-06T19:24:47.928Z,44.11
2024-02-06T19:27:34.150Z,43.93
2024-02-06T19:30:01.179Z,43.97
2024-02-06T19:32:28.300Z,44.47
2024-02-06T19:34:55.488Z,45.21
2024-02-06T19:37:22.675Z,44.81
2024-02-06T19:39:49.787Z,45.26
2024-02-06T19:42:19.693Z,45.68
2024-02-06T19:44:46.659Z,46.67
2024-02-06T19:47:27.166Z,46.87
2024-02-06T19:49:54.833Z,47.78
2024-02-06T19:52:22.033Z,45.01
2024-02-06T19:54:49.488Z,44.31
2024-02-06T19:57:17.033Z,44.43
2024-02-06T19:59:44.230Z,44.06
2024-02-06T20:02:11.396Z,42.88
2024-02-06T20:04:38.549Z,42.76
2024-02-06T20:07:06.737Z,41.79
2024-02-06T20:09:33.870Z,41.52
2024-02-06T20:12:00.965Z,41.44
2024-02-06T20:14:28.283Z,40.98
2024-02-06T20:16:55.422Z,40.72
2024-02-06T20:19:29.517Z,40.91
2024-02-06T20:21:57.031Z,41.06
2024-02-06T20:24:24.761Z,41.07
2024-02-06T20:26:51.875Z,42.23
2024-02-06T20:29:19.573Z,42.39
2024-02-06T20:31:46.600Z,42.70
2024-02-06T20:34:14.170Z,42.22
2024-02-06T20:36:45.955Z,42.90
2024-02-06T20:39:14.080Z,43.38
2024-02-06T20:41:41.192Z,42.78
2024-02-06T20:44:10.645Z,42.89
2024-02-06T20:46:39.957Z,43.84
2024-02-06T20:49:09.368Z,42.97
2024-02-06T20:51:36.732Z,43.70
2024-02-06T20:54:04.330Z,44.60
2024-02-06T20:56:31.392Z,44.66
2024-02-06T20:58:58.378Z,45.22
2024-02-06T21:01:25.575Z,45.54
2024-02-06T21:03:55.258Z,44.84
2024-02-06T21:06:22.324Z,44.32
2024-02-06T21:08:49.414Z,44.03
2024-02-06T21:11:19.540Z,45.12
2024-02-06T21:13:49.892Z,45.92
2024-02-06T21:16:16.991Z,46.03
2024-02-06T21:18:45.135Z,46.04
2024-02-06T21:21:13.268Z,46.52
2024-02-06T21:23:40.593Z,46.93
2024-02-06T21:26:07.642Z,47.40
2024-02-06T21:28:34.967Z,48.16
2024-02-06T21:31:02.100Z,48.18
2024-02-06T21:33:33.524Z,48.11
2024-02-06T21:36:01.064Z,47.85
2024-02-06T21:38:28.035Z,48.41
2024-02-06T21:40:55.043Z,47.11
2024-02-06T21:43:22.172Z,46.93
2024-02-06T21:45:52.225Z,46.83
2024-02-06T21:48:19.607Z,46.87
2024-02-06T21:50:46.727Z,47.75
2024-02-06T21:53:13.639Z,47.90
2024-02-06T21:55:40.967Z,48.13
2024-02-06T21:58:09.570Z,48.37
2024-02-06T22:00:36.581Z,48.53
2024-02-06T22:03:04.066Z,46.97
2024-02-06T22:05:36.647Z,47.35
2024-02-06T22:08:04.132Z,47.70
2024-02-06T22:10:33.753Z,48.29
2024-02-06T22:13:00.753Z,49.21
2024-02-06T22:15:32.917Z,48.58
2024-02-06T22:18:00.345Z,48.66
2024-02-06T22:20:27.487Z,49.39
2024-02-06T22:22:55.007Z,49.17
2024-02-06T22:25:22.356Z,49.47
2024-02-06T22:27:49.392Z,49.22
2024-02-06T22:30:18.781Z,49.66
2024-02-06T22:32:47.303Z,49.14
2024-02-06T22:35:14.960Z,48.52
2024-02-06T22:37:44.565Z,48.14
2024-02-06T22:40:12.104Z,48.90
2024-02-06T22:42:39.396Z,48.42
2024-02-06T22:45:11.086Z,48.63
2024-02-06T22:47:39.336Z,48.94
2024-02-06T22:50:07.270Z,48.04
2024-02-06T22:52:34.967Z,47.89
2024-02-06T22:55:01.965Z,48.92
2024-02-06T22:57:32.084Z,48.35
2024-02-06T22:59:59.132Z,47.81
2024-02-06T23:02:26.829Z,48.06
2024-02-06T23:04:54.101Z,46.92
2024-02-06T23:07:21.290Z,47.66
2024-02-06T23:09:48.503Z,47.59
2024-02-06T23:12:15.632Z,47.36
2024-02-06T23:14:42.757Z,47.76
2024-02-06T23:17:10.191Z,48.40
2024-02-06T23:19:37.912Z,48.64
2024-02-06T23:22:05.150Z,49.13
2024-02-06T23:24:32.107Z,49.06
2024-02-06T23:26:59.075Z,48.13
2024-02-06T23:29:26.026Z,48.02
2024-02-06T23:31:53.059Z,48.00
2024-02-06T23:34:20.146Z,48.50
2024-02-06T23:36:47.154Z,49.21
2024-02-06T23:39:16.652Z,49.59
2024-02-06T23:41:44.328Z,49.56
2024-02-06T23:44:11.954Z,49.46
2024-02-06T23:46:39.108Z,51.41
2024-02-06T23:49:07.376Z,51.50
2024-02-06T23:51:36.431Z,51.23
2024-02-06T23:54:03.501Z,49.34
2024-02-06T23:56:30.737Z,50.83
2024-02-06T23:58:57.798Z,50.11
